Time;durP1;ratioP1;P1;durP2;ratioP2;P2;SDS_P1;SDS_P2;PMS_P1;PMS_P2;Temp;Humidity;BMP_temperature;BMP_pressure;BME280_temperature;BME280_humidity;BME280_pressure;Samples;Min_cycle;Max_cycle;Signal;HPM_P1;HPM_P2
2021/11/05 00:01:14;;;;;;;38.60;10.60;;;10.40;90.50;;;;;;5024583;28;20043;-61
2021/11/05 00:03:40;;;;;;;49.42;11.05;;;10.40;90.50;;;;;;5041327;28;20025;-61
2021/11/05 00:06:05;;;;;;;48.42;10.75;;;10.40;90.50;;;;;;5042067;28;20041;-61
2021/11/05 00:08:31;;;;;;;46.70;11.13;;;10.30;90.40;;;;;;5042788;28;20057;-61
2021/11/05 00:10:56;;;;;;;50.85;11.90;;;10.30;90.40;;;;;;5040775;28;20088;-60
2021/11/05 00:13:22;;;;;;;38.80;9.73;;;10.30;90.70;;;;;;5042866;28;20325;-61
2021/11/05 00:15:47;;;;;;;36.20;9.63;;;10.30;90.40;;;;;;5040118;28;20032;-61
2021/11/05 00:18:13;;;;;;;42.70;9.90;;;10.30;90.40;;;;;;5040426;28;20052;-61
2021/11/05 00:20:38;;;;;;;41.47;10.52;;;10.30;90.40;;;;;;5042299;28;20037;-61
2021/11/05 00:23:04;;;;;;;37.72;9.93;;;10.30;90.40;;;;;;5040507;28;20049;-61
2021/11/05 00:25:29;;;;;;;32.13;9.23;;;10.30;90.40;;;;;;5042723;28;21256;-61
2021/11/05 00:27:55;;;;;;;48.40;10.10;;;10.30;90.40;;;;;;5041811;28;20040;-61
2021/11/05 00:30:20;;;;;;;31.75;10.55;;;10.30;90.40;;;;;;5040800;28;20044;-61
2021/11/05 00:32:46;;;;;;;37.70;9.68;;;10.20;90.40;;;;;;5039555;28;20059;-61
2021/11/05 00:35:12;;;;;;;50.17;10.13;;;10.20;90.30;;;;;;5040534;28;20041;-61
2021/11/05 00:37:37;;;;;;;33.72;8.88;;;10.30;90.30;;;;;;5043032;28;20051;-61
2021/11/05 00:40:04;;;;;;;37.28;9.63;;;10.20;90.30;;;;;;5042347;28;20041;-61
2021/11/05 00:42:30;;;;;;;34.88;9.07;;;10.20;90.30;;;;;;5038590;28;20028;-61
2021/11/05 00:44:55;;;;;;;33.65;9.77;;;10.20;90.30;;;;;;5038658;28;20044;-61
2021/11/05 00:47:21;;;;;;;35.45;10.00;;;10.30;90.20;;;;;;5039930;28;20041;-61
2021/11/05 00:49:46;;;;;;;36.00;9.25;;;10.20;90.20;;;;;;5033338;28;20437;-62
2021/11/05 00:52:12;;;;;;;41.25;9.52;;;10.20;90.20;;;;;;5042941;28;20128;-61
2021/11/05 00:54:37;;;;;;;30.92;8.30;;;10.20;90.20;;;;;;5042226;28;20044;-61
2021/11/05 00:57:03;;;;;;;36.47;9.40;;;10.20;90.20;;;;;;5040319;28;20049;-61
2021/11/05 00:59:29;;;;;;;32.65;9.00;;;10.20;90.10;;;;;;5040597;28;20502;-61
2021/11/05 01:01:54;;;;;;;30.30;7.93;;;10.20;90.10;;;;;;5040525;28;20029;-61
2021/11/05 01:04:20;;;;;;;28.00;7.72;;;10.20;90.10;;;;;;5042096;28;20437;-61
2021/11/05 01:06:45;;;;;;;28.30;8.02;;;10.20;90.10;;;;;;5040789;28;20040;-61
2021/11/05 01:09:11;;;;;;;25.92;7.65;;;10.20;90.10;;;;;;5041260;28;20156;-61
2021/11/05 01:11:36;;;;;;;24.02;8.10;;;10.20;90.10;;;;;;5040551;28;20053;-61
2021/11/05 01:14:02;;;;;;;31.20;7.97;;;10.20;90.10;;;;;;5038009;28;20035;-61
2021/11/05 01:16:27;;;;;;;29.17;8.05;;;10.20;90.00;;;;;;5042156;28;20058;-61
2021/11/05 01:18:53;;;;;;;19.95;7.35;;;10.20;90.00;;;;;;5041239;28;20029;-61
2021/11/05 01:21:18;;;;;;;25.77;8.07;;;10.20;90.00;;;;;;5023692;28;20044;-61
2021/11/05 01:23:45;;;;;;;24.60;8.20;;;10.20;90.00;;;;;;5043364;28;20053;-61
2021/11/05 01:26:11;;;;;;;24.98;7.30;;;10.10;90.00;;;;;;5038266;28;20396;-62
2021/11/05 01:28:36;;;;;;;19.85;7.07;;;10.10;90.00;;;;;;5037517;28;20065;-61
2021/11/05 01:31:02;;;;;;;18.98;6.55;;;10.10;90.00;;;;;;5041600;28;20036;-61
2021/11/05 01:33:28;;;;;;;17.20;6.07;;;10.10;89.90;;;;;;5041807;28;20025;-61
2021/11/05 01:35:53;;;;;;;21.80;6.15;;;10.10;90.00;;;;;;5021788;28;20029;-61
2021/11/05 01:38:19;;;;;;;21.33;6.97;;;10.10;90.00;;;;;;5037657;28;20037;-61
2021/11/05 01:40:45;;;;;;;23.00;5.88;;;10.10;90.00;;;;;;5037889;28;20029;-62
2021/11/05 01:43:11;;;;;;;19.50;6.63;;;10.10;90.00;;;;;;5041409;28;20033;-61
2021/11/05 01:45:37;;;;;;;19.75;6.30;;;10.10;90.00;;;;;;5041148;28;20029;-61
2021/11/05 01:48:02;;;;;;;28.65;6.60;;;10.10;90.00;;;;;;5040104;28;20113;-61
2021/11/05 01:50:28;;;;;;;77.97;11.10;;;10.10;90.00;;;;;;5041395;28;20148;-61
2021/11/05 01:52:54;;;;;;;40.88;8.57;;;10.10;90.00;;;;;;5039332;28;20065;-61
2021/11/05 01:55:19;;;;;;;48.80;9.35;;;10.10;90.00;;;;;;5040099;28;20023;-61
2021/11/05 01:57:46;;;;;;;57.65;9.25;;;10.10;90.00;;;;;;5042825;28;20032;-61
2021/11/05 02:00:14;;;;;;;62.15;10.68;;;10.10;90.00;;;;;;5042195;28;20047;-61
2021/11/05 02:02:40;;;;;;;35.70;8.35;;;10.10;90.00;;;;;;5021918;28;20041;-61
2021/11/05 02:05:05;;;;;;;45.00;8.52;;;10.10;89.90;;;;;;5037265;28;20044;-61
2021/11/05 02:07:33;;;;;;;38.20;9.50;;;10.10;89.90;;;;;;5044401;28;20033;-61
2021/11/05 02:09:58;;;;;;;51.00;9.48;;;10.10;89.90;;;;;;5028676;28;20021;-61
2021/11/05 02:12:24;;;;;;;45.05;8.35;;;10.00;89.70;;;;;;5043045;28;20468;-61
2021/11/05 02:14:50;;;;;;;46.83;8.32;;;10.10;89.90;;;;;;5026104;28;20037;-61
2021/11/05 02:17:16;;;;;;;56.28;10.60;;;10.00;89.80;;;;;;5041060;28;20049;-61
2021/11/05 02:19:42;;;;;;;45.28;8.15;;;10.00;89.80;;;;;;5043767;28;20051;-61
2021/11/05 02:22:08;;;;;;;48.97;9.35;;;10.00;89.80;;;;;;5043448;28;20033;-61
2021/11/05 02:24:33;;;;;;;37.17;8.98;;;10.00;89.80;;;;;;5043814;28;20037;-61
2021/11/05 02:27:01;;;;;;;47.05;10.20;;;10.10;89.90;;;;;;5041786;28;20045;-61
2021/11/05 02:29:28;;;;;;;39.92;9.93;;;10.00;89.80;;;;;;5041553;28;20926;-60
2021/11/05 02:31:53;;;;;;;36.45;8.48;;;10.00;89.80;;;;;;5040626;28;20349;-61
2021/11/05 02:34:19;;;;;;;42.25;8.23;;;10.00;90.00;;;;;;5044208;28;20048;-61
2021/11/05 02:36:45;;;;;;;32.85;8.00;;;10.00;89.70;;;;;;5046807;28;20082;-61
2021/11/05 02:39:10;;;;;;;31.35;6.72;;;10.00;89.70;;;;;;5043827;28;20048;-61
2021/11/05 02:41:37;;;;;;;38.22;8.95;;;10.00;89.80;;;;;;5040771;28;20045;-61
2021/11/05 02:44:03;;;;;;;42.00;8.10;;;10.00;89.70;;;;;;5042197;28;20075;-61
2021/11/05 02:46:29;;;;;;;30.92;7.43;;;10.00;89.80;;;;;;5043829;28;20111;-61
2021/11/05 02:49:02;;;;;;;27.52;7.45;;;10.00;89.80;;;;;;5044299;28;20037;-61
2021/11/05 02:51:27;;;;;;;27.90;8.32;;;10.00;89.90;;;;;;5042810;28;20372;-61
2021/11/05 02:53:53;;;;;;;30.30;7.78;;;10.00;89.90;;;;;;5044608;28;20033;-61
2021/11/05 02:56:19;;;;;;;31.33;6.70;;;10.00;89.90;;;;;;5041336;28;20059;-61
2021/11/05 02:58:44;;;;;;;29.67;6.95;;;10.00;89.90;;;;;;5044385;28;20388;-61
2021/11/05 03:01:10;;;;;;;26.05;7.13;;;10.00;90.00;;;;;;5044632;28;20050;-61
2021/11/05 03:03:36;;;;;;;36.78;8.05;;;10.00;90.00;;;;;;5045651;28;20132;-60
2021/11/05 03:06:01;;;;;;;40.47;8.25;;;9.90;90.00;;;;;;5044555;28;20491;-61
2021/11/05 03:08:27;;;;;;;32.65;9.98;;;9.90;90.00;;;;;;5042810;28;20467;-61
2021/11/05 03:10:53;;;;;;;42.92;10.45;;;10.00;90.00;;;;;;5041791;28;20135;-61
2021/11/05 03:13:19;;;;;;;38.38;9.60;;;10.00;90.00;;;;;;5044563;28;20017;-61
2021/11/05 03:15:44;;;;;;;31.80;9.80;;;9.90;90.00;;;;;;5044718;28;20031;-61
2021/11/05 03:18:10;;;;;;;37.55;10.00;;;10.00;90.00;;;;;;5044301;28;20139;-61
2021/11/05 03:20:35;;;;;;;38.40;12.23;;;9.90;90.00;;;;;;5042089;28;20033;-61
2021/11/05 03:23:01;;;;;;;44.03;13.07;;;9.90;90.00;;;;;;5041391;28;20057;-61
2021/11/05 03:25:27;;;;;;;42.63;12.73;;;9.90;90.10;;;;;;5040843;28;20044;-61
2021/11/05 03:27:52;;;;;;;38.00;11.18;;;9.90;90.10;;;;;;5043729;28;20470;-61
2021/11/05 03:30:21;;;;;;;40.85;11.38;;;9.90;90.10;;;;;;5043547;28;20029;-61
2021/11/05 03:32:46;;;;;;;41.13;13.70;;;9.90;90.20;;;;;;5040204;28;20090;-61
2021/11/05 03:35:12;;;;;;;44.50;14.35;;;9.90;90.20;;;;;;5041350;28;20749;-61
2021/11/05 03:37:38;;;;;;;34.70;14.30;;;9.90;90.30;;;;;;5042011;28;20123;-61
2021/11/05 03:40:06;;;;;;;40.55;13.32;;;9.80;90.20;;;;;;5034873;28;20128;-61
2021/11/05 03:42:32;;;;;;;43.25;13.13;;;9.90;90.30;;;;;;5042341;28;20040;-61
2021/11/05 03:44:57;;;;;;;34.63;12.13;;;9.80;90.30;;;;;;5040463;28;20017;-61
2021/11/05 03:47:23;;;;;;;35.58;12.48;;;9.80;90.30;;;;;;5041193;28;20493;-61
2021/11/05 03:49:49;;;;;;;36.95;12.45;;;9.80;90.30;;;;;;5041157;28;20481;-61
2021/11/05 03:52:14;;;;;;;27.85;11.85;;;9.90;90.40;;;;;;5040255;28;20032;-61
2021/11/05 03:54:40;;;;;;;29.73;11.38;;;9.80;90.30;;;;;;5039108;28;20039;-61
2021/11/05 03:57:06;;;;;;;29.17;10.63;;;9.80;90.30;;;;;;5025499;28;20024;-61
2021/11/05 03:59:32;;;;;;;33.50;11.02;;;9.80;90.30;;;;;;5023059;28;20068;-61
2021/11/05 04:01:58;;;;;;;29.90;11.88;;;9.80;90.30;;;;;;5037560;28;20650;-61
2021/11/05 04:04:24;;;;;;;31.73;10.90;;;9.80;90.30;;;;;;5042261;28;20033;-61
2021/11/05 04:06:49;;;;;;;29.90;10.90;;;9.80;90.30;;;;;;5041541;28;20037;-62
2021/11/05 04:09:15;;;;;;;29.15;10.75;;;9.80;90.30;;;;;;5042260;28;20480;-61
2021/11/05 04:11:40;;;;;;;37.42;10.68;;;9.80;90.30;;;;;;5039813;28;20021;-61
2021/11/05 04:14:06;;;;;;;27.55;10.02;;;9.80;90.30;;;;;;5039899;28;20072;-61
2021/11/05 04:16:31;;;;;;;24.55;10.27;;;9.80;90.30;;;;;;5039528;28;20037;-61
2021/11/05 04:18:57;;;;;;;35.75;10.75;;;9.80;90.30;;;;;;5042767;28;20087;-61
2021/11/05 04:21:22;;;;;;;24.45;9.57;;;9.80;90.30;;;;;;5044021;28;20110;-61
2021/11/05 04:23:48;;;;;;;24.63;9.70;;;9.80;90.30;;;;;;5041541;28;20124;-61
2021/11/05 04:26:15;;;;;;;27.20;10.02;;;9.80;90.30;;;;;;5023113;28;20403;-61
2021/11/05 04:28:40;;;;;;;27.98;8.70;;;9.80;90.30;;;;;;5021529;28;20267;-61
2021/11/05 04:31:06;;;;;;;24.00;7.65;;;9.70;90.30;;;;;;5022195;28;20145;-61
2021/11/05 04:33:32;;;;;;;19.15;8.55;;;9.70;90.30;;;;;;5041302;28;20029;-61
2021/11/05 04:35:58;;;;;;;22.10;8.43;;;9.70;90.30;;;;;;5039962;28;20025;-61
2021/11/05 04:38:24;;;;;;;18.63;7.63;;;9.70;90.20;;;;;;5041925;28;20502;-61
2021/11/05 04:40:49;;;;;;;16.95;8.23;;;9.70;90.30;;;;;;5038221;28;20053;-61
2021/11/05 04:43:15;;;;;;;26.27;8.65;;;9.70;90.30;;;;;;5041835;28;20074;-61
2021/11/05 04:45:40;;;;;;;22.48;7.55;;;9.70;90.30;;;;;;5042372;28;20033;-61
2021/11/05 04:48:06;;;;;;;18.95;7.35;;;9.70;90.30;;;;;;5041979;28;20029;-61
2021/11/05 04:50:32;;;;;;;21.00;6.70;;;9.70;90.30;;;;;;5041358;28;20094;-61
2021/11/05 04:52:58;;;;;;;16.23;7.22;;;9.60;90.20;;;;;;5039383;28;20175;-61
2021/11/05 04:55:23;;;;;;;18.08;7.30;;;9.70;90.30;;;;;;5040784;28;20059;-61
2021/11/05 04:57:49;;;;;;;23.60;7.22;;;9.60;90.30;;;;;;5042860;28;21324;-61
2021/11/05 05:00:15;;;;;;;19.10;7.65;;;9.60;90.30;;;;;;5045076;28;20033;-61
2021/11/05 05:02:41;;;;;;;20.55;6.75;;;9.60;90.30;;;;;;5043956;28;20249;-61
2021/11/05 05:05:07;;;;;;;17.20;7.22;;;9.60;90.30;;;;;;5043827;28;20097;-61
2021/11/05 05:07:32;;;;;;;23.50;6.90;;;9.60;90.30;;;;;;5041667;28;20178;-62
2021/11/05 05:09:58;;;;;;;13.80;7.00;;;9.60;90.30;;;;;;5042681;28;20096;-61
2021/11/05 05:12:23;;;;;;;16.02;6.70;;;9.60;90.30;;;;;;5042631;28;20049;-62
2021/11/05 05:14:49;;;;;;;16.70;6.75;;;9.60;90.30;;;;;;5044047;28;20033;-60
2021/11/05 05:17:15;;;;;;;14.10;7.32;;;9.60;90.30;;;;;;5044044;28;20508;-61
2021/11/05 05:19:40;;;;;;;14.32;6.10;;;9.50;90.30;;;;;;5043631;28;20037;-60
2021/11/05 05:22:08;;;;;;;12.07;6.35;;;9.30;90.20;;;;;;5025478;28;20055;-61
2021/11/05 05:24:34;;;;;;;19.25;7.32;;;9.50;90.30;;;;;;5044468;28;20035;-61
2021/11/05 05:26:59;;;;;;;17.77;7.05;;;9.50;90.30;;;;;;5042171;28;20029;-61
2021/11/05 05:29:25;;;;;;;27.20;6.70;;;9.50;90.30;;;;;;5042342;28;20480;-61
2021/11/05 05:31:50;;;;;;;42.03;7.68;;;9.50;90.30;;;;;;5043832;28;20036;-61
2021/11/05 05:34:16;;;;;;;100.00;12.40;;;9.50;90.40;;;;;;5042621;28;20458;-61
2021/11/05 05:36:41;;;;;;;270.83;24.48;;;9.50;90.30;;;;;;5039862;28;20056;-61
2021/11/05 05:39:07;;;;;;;261.90;24.73;;;9.50;90.40;;;;;;5043805;28;20040;-61
2021/11/05 05:41:32;;;;;;;224.07;21.17;;;9.50;90.40;;;;;;5037582;28;20036;-61
2021/11/05 05:43:58;;;;;;;195.02;20.27;;;9.50;90.40;;;;;;5044350;28;20036;-61
2021/11/05 05:46:23;;;;;;;168.27;16.92;;;9.50;90.40;;;;;;5044502;28;20540;-60
2021/11/05 05:48:49;;;;;;;142.18;15.27;;;9.30;90.40;;;;;;5044403;28;20033;-61
2021/11/05 05:51:15;;;;;;;145.07;15.18;;;9.50;90.40;;;;;;5045087;28;20412;-60
2021/11/05 05:53:40;;;;;;;137.93;14.75;;;9.50;90.40;;;;;;5046559;28;20033;-60
2021/11/05 05:56:06;;;;;;;124.95;14.18;;;9.50;90.40;;;;;;5045576;28;20377;-61
2021/11/05 05:58:32;;;;;;;113.82;12.70;;;9.50;90.40;;;;;;5043995;28;20786;-61
2021/11/05 06:00:57;;;;;;;133.50;13.38;;;9.50;90.40;;;;;;5043283;28;20790;-61
2021/11/05 06:03:23;;;;;;;135.60;14.98;;;9.40;90.40;;;;;;5043666;28;20051;-61
2021/11/05 06:05:48;;;;;;;94.72;11.85;;;9.40;90.40;;;;;;5045237;28;20324;-61
2021/11/05 06:08:14;;;;;;;104.45;11.27;;;9.40;90.40;;;;;;5047207;28;20647;-61
2021/11/05 06:10:39;;;;;;;86.97;11.77;;;9.50;90.40;;;;;;5043853;28;20107;-61
2021/11/05 06:13:05;;;;;;;95.88;13.50;;;9.50;90.30;;;;;;5043964;28;20491;-61
2021/11/05 06:15:30;;;;;;;83.80;12.27;;;9.40;90.40;;;;;;5047317;28;20405;-61
2021/11/05 06:17:56;;;;;;;94.07;10.48;;;9.40;90.30;;;;;;5045507;28;20207;-61
2021/11/05 06:20:21;;;;;;;84.07;11.85;;;9.40;90.30;;;;;;5047163;28;20100;-61
2021/11/05 06:22:47;;;;;;;78.53;10.32;;;9.40;90.30;;;;;;5038117;28;20474;-61
2021/11/05 06:25:13;;;;;;;86.07;11.18;;;9.50;90.40;;;;;;5039641;28;20091;-61
2021/11/05 06:27:38;;;;;;;76.80;8.98;;;9.40;90.40;;;;;;5043886;28;20021;-61
2021/11/05 06:30:07;;;;;;;73.10;10.07;;;9.50;90.40;;;;;;5044227;28;20024;-60
2021/11/05 06:32:33;;;;;;;68.47;9.93;;;9.40;90.40;;;;;;5044444;28;20382;-61
2021/11/05 06:34:59;;;;;;;78.93;10.02;;;9.40;90.40;;;;;;5042974;28;20029;-60
2021/11/05 06:37:25;;;;;;;76.55;10.07;;;9.40;90.40;;;;;;5042232;28;20056;-61
2021/11/05 06:39:50;;;;;;;67.15;9.90;;;9.50;90.50;;;;;;5040597;28;20530;-61
2021/11/05 06:42:20;;;;;;;57.60;8.85;;;9.40;90.40;;;;;;5041870;28;20064;-61
2021/11/05 06:44:47;;;;;;;44.38;8.68;;;9.50;90.50;;;;;;5044343;28;20048;-61
2021/11/05 06:47:13;;;;;;;68.30;10.02;;;9.40;90.60;;;;;;5042391;28;20024;-61
2021/11/05 06:49:38;;;;;;;57.25;10.02;;;9.50;90.60;;;;;;5042396;28;20090;-61
2021/11/05 06:52:04;;;;;;;60.15;9.35;;;9.40;90.60;;;;;;5040591;28;20033;-61
2021/11/05 06:54:29;;;;;;;68.13;9.10;;;9.50;90.70;;;;;;5042113;28;20037;-60
2021/11/05 06:56:55;;;;;;;58.72;9.38;;;9.50;90.70;;;;;;5036846;28;20029;-61
2021/11/05 06:59:20;;;;;;;53.13;9.30;;;9.50;90.70;;;;;;5044586;28;20299;-61
2021/11/05 07:01:46;;;;;;;47.58;8.25;;;9.50;90.70;;;;;;5041471;28;20042;-61
2021/11/05 07:04:11;;;;;;;52.65;8.98;;;9.50;90.70;;;;;;5042392;28;20025;-61
2021/11/05 07:06:44;;;;;;;42.22;7.55;;;9.50;90.70;;;;;;5040911;28;20059;-61
2021/11/05 07:09:13;;;;;;;51.22;8.10;;;9.50;90.70;;;;;;5042245;28;20029;-61
2021/11/05 07:11:39;;;;;;;50.50;8.77;;;9.50;90.70;;;;;;5037298;28;20025;-60
2021/11/05 07:14:04;;;;;;;52.00;7.18;;;9.50;90.70;;;;;;5039898;28;20451;-61
2021/11/05 07:16:32;;;;;;;62.60;8.80;;;9.50;90.80;;;;;;5040741;28;20052;-60
2021/11/05 07:18:57;;;;;;;50.33;7.82;;;9.50;90.80;;;;;;5037606;28;20044;-61
2021/11/05 07:21:23;;;;;;;43.42;8.10;;;9.50;91.10;;;;;;5038391;28;20111;-61
2021/11/05 07:23:49;;;;;;;45.33;7.70;;;9.50;90.80;;;;;;5025190;28;20055;-63
2021/11/05 07:26:15;;;;;;;47.88;7.82;;;9.50;90.80;;;;;;5041677;28;20391;-60
2021/11/05 07:28:41;;;;;;;38.72;7.40;;;9.50;90.80;;;;;;5039652;28;20041;-61
2021/11/05 07:31:06;;;;;;;29.17;7.22;;;9.50;90.80;;;;;;5040048;28;20060;-61
2021/11/05 07:33:32;;;;;;;31.48;6.65;;;9.50;90.80;;;;;;5041574;28;20051;-61
2021/11/05 07:35:57;;;;;;;53.42;8.18;;;9.50;90.80;;;;;;5039583;28;20052;-60
2021/11/05 07:38:23;;;;;;;43.70;7.45;;;9.60;90.80;;;;;;5041098;28;20033;-60
2021/11/05 07:40:48;;;;;;;37.72;6.57;;;9.60;90.80;;;;;;5038376;28;20126;-61
2021/11/05 07:43:14;;;;;;;52.05;7.90;;;9.50;91.10;;;;;;5034194;28;20496;-61
2021/11/05 07:45:39;;;;;;;43.10;6.88;;;9.60;90.80;;;;;;5042108;28;20047;-60
2021/11/05 07:48:05;;;;;;;32.03;6.22;;;9.60;90.90;;;;;;5041598;28;20052;-61
2021/11/05 07:50:33;;;;;;;46.40;8.40;;;9.60;91.00;;;;;;5040996;28;20051;-61
2021/11/05 07:53:01;;;;;;;41.38;7.20;;;9.60;91.00;;;;;;5036820;28;20044;-61
2021/11/05 07:55:30;;;;;;;35.05;7.15;;;9.70;91.00;;;;;;5021187;28;20083;-61
2021/11/05 07:57:56;;;;;;;46.95;8.25;;;9.70;91.10;;;;;;5035668;28;20045;-59
2021/11/05 08:00:21;;;;;;;40.38;7.57;;;9.70;91.10;;;;;;5039945;28;20177;-60
2021/11/05 08:02:47;;;;;;;32.30;7.97;;;9.70;91.10;;;;;;5039913;28;20364;-60
2021/11/05 08:05:13;;;;;;;29.77;7.40;;;9.70;91.10;;;;;;5042780;28;20405;-60
2021/11/05 08:07:38;;;;;;;43.15;7.40;;;9.70;91.00;;;;;;5038393;28;20029;-60
2021/11/05 08:10:06;;;;;;;52.53;7.65;;;9.70;91.00;;;;;;5037597;28;20063;-61
2021/11/05 08:12:31;;;;;;;45.78;7.88;;;9.80;90.90;;;;;;5039825;28;20120;-61
2021/11/05 08:14:57;;;;;;;30.63;7.05;;;9.80;90.90;;;;;;5037573;28;20039;-61
2021/11/05 08:17:24;;;;;;;67.90;9.13;;;9.80;90.80;;;;;;5039202;28;20156;-61
2021/11/05 08:19:50;;;;;;;56.65;9.82;;;9.80;90.80;;;;;;5036111;28;20067;-61
2021/11/05 08:22:17;;;;;;;60.97;8.05;;;9.70;90.80;;;;;;5038151;28;20460;-61
2021/11/05 08:24:43;;;;;;;49.50;7.20;;;9.80;90.80;;;;;;5038050;28;20080;-61
2021/11/05 08:27:09;;;;;;;35.75;6.93;;;9.80;90.70;;;;;;5036146;28;20202;-61
2021/11/05 08:29:34;;;;;;;49.67;7.47;;;9.80;90.60;;;;;;5038565;28;20029;-60
2021/11/05 08:32:00;;;;;;;63.33;9.07;;;9.80;90.70;;;;;;5042571;28;20032;-60
2021/11/05 08:34:25;;;;;;;136.82;16.50;;;9.80;90.70;;;;;;5039352;28;20060;-61
2021/11/05 08:36:51;;;;;;;54.50;9.35;;;9.80;90.70;;;;;;5006354;28;20640;-61
2021/11/05 08:39:16;;;;;;;52.67;8.88;;;9.90;90.60;;;;;;5038937;28;20060;-61
2021/11/05 08:41:42;;;;;;;57.20;8.95;;;9.90;90.60;;;;;;5038636;28;20125;-61
2021/11/05 08:44:08;;;;;;;62.15;9.65;;;9.90;90.60;;;;;;5022644;28;20024;-61
2021/11/05 08:46:34;;;;;;;63.97;8.68;;;9.90;90.50;;;;;;5038144;28;20291;-60
2021/11/05 08:49:00;;;;;;;51.97;8.98;;;9.90;90.50;;;;;;5041565;28;20115;-61
2021/11/05 08:51:26;;;;;;;68.55;10.10;;;9.90;90.50;;;;;;5036243;28;20629;-60
2021/11/05 08:53:52;;;;;;;64.90;9.43;;;10.00;90.50;;;;;;5041456;28;20051;-61
2021/11/05 08:56:18;;;;;;;54.33;8.35;;;10.00;90.50;;;;;;5023355;28;20025;-61
2021/11/05 08:58:44;;;;;;;57.88;8.52;;;10.00;90.40;;;;;;5023601;28;20108;-61
2021/11/05 09:01:10;;;;;;;59.53;7.88;;;10.00;90.40;;;;;;5037824;28;20148;-61
2021/11/05 09:03:35;;;;;;;45.22;6.82;;;10.00;90.40;;;;;;5039500;28;20048;-60
2021/11/05 09:06:02;;;;;;;48.42;7.15;;;10.00;90.40;;;;;;5039152;28;20128;-61
2021/11/05 09:08:30;;;;;;;51.65;9.00;;;10.00;90.30;;;;;;5034509;28;20044;-60
2021/11/05 09:10:56;;;;;;;64.65;9.07;;;10.00;90.30;;;;;;5038269;28;20380;-61
2021/11/05 09:13:22;;;;;;;46.33;7.80;;;10.10;90.40;;;;;;5019839;28;20041;-61
2021/11/05 09:15:47;;;;;;;59.20;8.45;;;10.10;90.40;;;;;;5038607;28;20021;-61
2021/11/05 09:18:13;;;;;;;53.35;8.40;;;10.10;90.40;;;;;;5038724;28;20037;-61
2021/11/05 09:20:39;;;;;;;45.83;6.60;;;10.10;90.40;;;;;;5039766;28;20056;-60
2021/11/05 09:23:04;;;;;;;47.03;8.27;;;10.20;90.50;;;;;;5040425;28;20467;-61
2021/11/05 09:25:30;;;;;;;48.92;8.68;;;10.20;90.50;;;;;;5036243;28;20067;-61
2021/11/05 09:27:55;;;;;;;71.88;10.13;;;10.20;90.60;;;;;;5035263;28;20044;-60
2021/11/05 09:30:23;;;;;;;89.60;11.15;;;10.20;90.90;;;;;;5012158;28;20065;-61
2021/11/05 09:32:50;;;;;;;73.47;10.50;;;10.20;90.90;;;;;;5038767;28;20021;-61
2021/11/05 09:35:16;;;;;;;63.20;10.43;;;10.20;90.90;;;;;;5041071;28;20017;-61
2021/11/05 09:37:43;;;;;;;50.20;7.78;;;10.30;90.90;;;;;;5037460;28;21475;-60
2021/11/05 09:40:11;;;;;;;65.35;9.32;;;10.40;90.70;;;;;;5039609;28;20029;-61
2021/11/05 09:42:37;;;;;;;59.78;8.80;;;10.40;90.60;;;;;;5036504;28;20048;-60
2021/11/05 09:45:03;;;;;;;67.28;10.18;;;10.40;90.80;;;;;;5036496;28;20576;-61
2021/11/05 09:47:29;;;;;;;79.85;11.40;;;10.40;90.70;;;;;;5038388;28;20017;-61
2021/11/05 09:49:54;;;;;;;75.70;11.95;;;10.50;90.90;;;;;;5041819;28;20025;-61
2021/11/05 09:52:20;;;;;;;81.55;10.27;;;10.50;90.90;;;;;;5039411;28;20037;-61
2021/11/05 09:54:48;;;;;;;61.65;10.02;;;10.50;90.90;;;;;;5005028;28;20061;-61
2021/11/05 09:57:14;;;;;;;87.38;10.32;;;10.60;90.80;;;;;;5036485;28;20035;-61
2021/11/05 09:59:39;;;;;;;88.93;10.63;;;10.60;90.80;;;;;;5022227;28;20037;-61
2021/11/05 10:02:05;;;;;;;79.45;9.65;;;10.60;90.90;;;;;;5034398;28;20403;-61
2021/11/05 10:04:31;;;;;;;89.70;13.25;;;10.70;90.90;;;;;;5037496;28;20052;-61
2021/11/05 10:07:05;;;;;;;82.93;10.43;;;10.70;90.90;;;;;;5039380;28;20439;-60
2021/11/05 10:09:41;;;;;;;88.82;11.40;;;10.70;91.00;;;;;;5035959;28;20075;-61
2021/11/05 10:12:36;;;;;;;85.20;11.55;;;10.90;91.10;;;;;;5036988;28;20020;-61
2021/11/05 10:15:05;;;;;;;83.95;10.35;;;10.80;91.00;;;;;;5022517;28;20083;-61
2021/11/05 10:17:32;;;;;;;87.47;10.93;;;10.80;91.00;;;;;;5036934;28;20063;-61
2021/11/05 10:19:59;;;;;;;68.38;9.25;;;10.80;91.00;;;;;;5035152;28;20033;-60
2021/11/05 10:22:32;;;;;;;67.22;10.32;;;10.80;90.90;;;;;;5039649;28;20082;-61
2021/11/05 10:25:24;;;;;;;82.80;10.65;;;10.90;90.80;;;;;;5035095;28;20021;-63
2021/11/05 10:28:12;;;;;;;62.95;10.05;;;10.90;90.70;;;;;;5037860;28;20037;-61
2021/11/05 10:30:44;;;;;;;84.05;10.52;;;11.00;90.80;;;;;;5039525;28;20068;-60
2021/11/05 10:33:14;;;;;;;63.78;10.00;;;11.00;90.80;;;;;;5040462;28;20032;-60
2021/11/05 10:35:40;;;;;;;94.78;10.60;;;11.00;90.70;;;;;;5021855;28;20229;-60
2021/11/05 10:38:07;;;;;;;69.80;9.63;;;11.10;90.70;;;;;;5009448;28;20147;-61
2021/11/05 10:40:42;;;;;;;112.00;11.57;;;11.10;90.60;;;;;;5039877;28;20029;-61
2021/11/05 10:43:08;;;;;;;75.68;11.23;;;11.10;90.60;;;;;;5040670;28;20595;-60
2021/11/05 10:45:36;;;;;;;69.70;10.55;;;11.10;90.50;;;;;;5038305;28;20063;-61
2021/11/05 10:48:03;;;;;;;85.60;10.30;;;11.10;90.50;;;;;;5006672;28;20041;-60
2021/11/05 10:50:49;;;;;;;88.00;11.55;;;11.20;90.50;;;;;;5041569;28;20021;-61
2021/11/05 10:53:16;;;;;;;81.90;10.50;;;11.10;90.50;;;;;;5041058;28;20105;-60
2021/11/05 10:55:49;;;;;;;75.18;11.52;;;11.20;90.30;;;;;;5040416;28;20051;-60
2021/11/05 10:58:37;;;;;;;81.93;10.20;;;11.20;90.30;;;;;;5040411;28;20064;-61
2021/11/05 11:01:04;;;;;;;84.03;10.70;;;11.20;90.20;;;;;;5021724;28;20474;-61
2021/11/05 11:03:41;;;;;;;58.97;9.60;;;11.20;90.30;;;;;;5041346;28;20508;-61
2021/11/05 11:06:11;;;;;;;77.70;9.60;;;11.30;90.30;;;;;;5038517;28;20033;-60
2021/11/05 11:08:39;;;;;;;68.00;10.73;;;11.20;90.10;;;;;;5039353;28;20111;-60
2021/11/05 11:11:24;;;;;;;132.10;15.32;;;11.30;90.40;;;;;;5019804;28;20921;-60
2021/11/05 11:13:54;;;;;;;98.55;15.15;;;11.30;90.20;;;;;;5039413;28;20164;-62
2021/11/05 11:16:20;;;;;;;88.40;11.32;;;11.30;90.20;;;;;;5037890;28;20111;-61
2021/11/05 11:18:51;;;;;;;81.10;11.20;;;11.30;90.20;;;;;;5035732;28;20541;-61
2021/11/05 11:21:17;;;;;;;100.80;12.65;;;11.40;90.20;;;;;;5038260;28;20037;-61
2021/11/05 11:23:43;;;;;;;93.30;12.27;;;11.40;90.10;;;;;;5040773;28;20492;-61
2021/11/05 11:26:08;;;;;;;95.63;10.75;;;11.40;90.10;;;;;;5039053;28;20071;-61
2021/11/05 11:28:34;;;;;;;294.98;28.52;;;11.50;90.00;;;;;;5022084;28;20037;-61
2021/11/05 11:30:59;;;;;;;152.32;18.63;;;11.50;90.00;;;;;;5030293;28;20520;-61
2021/11/05 11:33:25;;;;;;;103.05;11.70;;;11.50;89.90;;;;;;5032106;28;20029;-61
2021/11/05 11:35:51;;;;;;;106.85;11.60;;;11.50;90.00;;;;;;5028923;28;20900;-62
2021/11/05 11:38:17;;;;;;;145.63;17.15;;;11.50;89.80;;;;;;5026892;28;20033;-61
2021/11/05 11:40:43;;;;;;;145.88;14.57;;;11.60;89.80;;;;;;5003832;28;20040;-62
2021/11/05 11:43:08;;;;;;;162.05;15.35;;;11.60;89.60;;;;;;5028994;28;20033;-61
2021/11/05 11:45:36;;;;;;;111.45;11.52;;;11.60;89.50;;;;;;5026664;28;20130;-61
2021/11/05 11:48:02;;;;;;;91.15;11.07;;;11.60;89.50;;;;;;5036563;28;20383;-60
2021/11/05 11:50:33;;;;;;;83.35;9.65;;;11.70;89.30;;;;;;5038449;28;20037;-61
2021/11/05 11:53:05;;;;;;;95.85;12.45;;;11.70;89.20;;;;;;5031919;28;20033;-61
2021/11/05 11:55:31;;;;;;;452.63;43.28;;;11.70;89.10;;;;;;5011179;28;20143;-61
2021/11/05 11:58:17;;;;;;;146.27;17.00;;;11.70;89.10;;;;;;5029447;28;20042;-61
2021/11/05 12:00:44;;;;;;;133.80;15.68;;;11.80;89.00;;;;;;5031240;28;20290;-61
2021/11/05 12:03:11;;;;;;;147.57;16.05;;;11.80;88.90;;;;;;5032233;28;20059;-61
2021/11/05 12:05:40;;;;;;;141.07;14.63;;;11.80;88.90;;;;;;5029784;28;20093;-61
2021/11/05 12:08:22;;;;;;;136.90;14.00;;;11.80;88.90;;;;;;5031802;28;20263;-63
2021/11/05 12:10:54;;;;;;;136.13;15.15;;;11.90;88.90;;;;;;5029068;28;20029;-61
2021/11/05 12:13:35;;;;;;;170.88;18.00;;;11.90;88.80;;;;;;5018312;28;20116;-60
2021/11/05 12:16:09;;;;;;;145.25;16.88;;;11.90;88.70;;;;;;5037774;28;20032;-61
2021/11/05 12:21:36;;;;;;;137.02;15.48;;;12.00;88.70;;;;;;5029623;28;20061;-63
2021/11/05 12:24:17;;;;;;;182.43;18.52;;;12.00;88.60;;;;;;5020706;28;20506;-61
2021/11/05 12:26:54;;;;;;;148.80;15.32;;;12.00;88.60;;;;;;5035813;28;20033;-61
2021/11/05 12:29:36;;;;;;;250.60;26.25;;;12.00;88.70;;;;;;5038267;28;20072;-60
2021/11/05 12:32:17;;;;;;;156.32;18.50;;;12.00;88.60;;;;;;5037116;28;20036;-61
2021/11/05 12:34:48;;;;;;;184.13;16.77;;;12.00;88.60;;;;;;5037058;28;20096;-62
2021/11/05 12:37:28;;;;;;;149.52;17.58;;;12.10;88.70;;;;;;5021444;28;20512;-61